Big Piney, WY weather

Big Piney-Marbleton Airport (AMOS), Big Piney, WY: 12/19/2014 13:53
Visibility10 statute mileslots of clouds
View 7-Day Forecast
Area Summary
Sky/CloudsBroken at 5500ft, Solid Overcast at 7500ft
Weather [last 24 hours]None
Pressure30.08 in.Hg (1019 hPa)
3-hour Pressure Tendency0.04429 in.Hg (1.5 hPa) Decreasing, then steady, or decreasing then decreasing more slowly
Dew Point17.1 F (-8.3 C)
Relative Humidity51.3 %
Temperature33.1 F (0.6 C)red thermometer
Reading TimeMinimum to Maximum Temperature
6-hr ending 12/19@10:539 F to 24.1 F (-12.8 C to -4.4 C)
6-hr ending 12/19@04:538.1 F to 15.1 F (-13.3 C to -9.4 C)
6-hr ending 12/18@22:5310 F to 25 F (-12.2 C to -3.9 C)
6-hr ending 12/18@16:5323 F to 33.1 F (-5 C to 0.6 C)
24-hr ending 12/18@23:533.9 F to 33.1 F (-15.6 C to 0.6 C)
Wind0 MPH (0 KT) green arrow pointing at 0 degrees
Wind FromNorth (000 Degrees)
Twilight Begins07:13Sunshine Yesterday
Sunrise07:45N/A
Sunset16:51
Twilight Ends17:23
METARKBPI 192053Z AUTO 00000KT 10SM BKN055 OVC075 01/M08 A3008 RMK AO2 SLP219 T00061083 56015
Tags: